sensor_id;sensor_type;location;lat;lon;timestamp;temperature;humidity
11505;DHT22;5809;53.262;10.408;2023-04-01T00:01:02;8.70;99.90
11505;DHT22;5809;53.262;10.408;2023-04-01T00:03:29;9.10;99.90
11505;DHT22;5809;53.262;10.408;2023-04-01T00:05:57;9.00;99.90
11505;DHT22;5809;53.262;10.408;2023-04-01T00:08:24;9.00;99.90
11505;DHT22;5809;53.262;10.408;2023-04-01T00:10:52;9.00;99.90
11505;DHT22;5809;53.262;10.408;2023-04-01T00:13:20;9.00;99.90
11505;DHT22;5809;53.262;10.408;2023-04-01T00:15:49;8.90;99.90
11505;DHT22;5809;53.262;10.408;2023-04-01T00:18:16;8.90;99.90
11505;DHT22;5809;53.262;10.408;2023-04-01T00:20:44;8.90;99.90
11505;DHT22;5809;53.262;10.408;2023-04-01T00:23:11;8.90;99.90
11505;DHT22;5809;53.262;10.408;2023-04-01T00:25:38;8.90;99.90
11505;DHT22;5809;53.262;10.408;2023-04-01T00:28:05;8.90;99.90
11505;DHT22;5809;53.262;10.408;2023-04-01T00:30:32;8.90;99.90
11505;DHT22;5809;53.262;10.408;2023-04-01T00:33:01;8.90;99.90
11505;DHT22;5809;53.262;10.408;2023-04-01T00:35:28;8.90;99.90
11505;DHT22;5809;53.262;10.408;2023-04-01T00:37:55;8.90;99.90
11505;DHT22;5809;53.262;10.408;2023-04-01T00:40:25;8.80;99.90
11505;DHT22;5809;53.262;10.408;2023-04-01T00:42:53;8.80;99.90
11505;DHT22;5809;53.262;10.408;2023-04-01T00:45:30;8.80;99.90
11505;DHT22;5809;53.262;10.408;2023-04-01T00:48:01;8.80;99.90
11505;DHT22;5809;53.262;10.408;2023-04-01T00:50:29;8.80;99.90
11505;DHT22;5809;53.262;10.408;2023-04-01T00:52:57;8.70;99.90
11505;DHT22;5809;53.262;10.408;2023-04-01T00:55:27;8.80;99.90
11505;DHT22;5809;53.262;10.408;2023-04-01T00:57:57;8.80;99.90
11505;DHT22;5809;53.262;10.408;2023-04-01T01:00:25;8.80;99.90
11505;DHT22;5809;53.262;10.408;2023-04-01T01:02:52;8.70;99.90
11505;DHT22;5809;53.262;10.408;2023-04-01T01:05:26;8.70;99.90
11505;DHT22;5809;53.262;10.408;2023-04-01T01:08:02;8.80;99.90
11505;DHT22;5809;53.262;10.408;2023-04-01T01:10:34;8.80;99.90
11505;DHT22;5809;53.262;10.408;2023-04-01T01:13:07;8.80;99.90
11505;DHT22;5809;53.262;10.408;2023-04-01T01:15:40;8.70;99.90
11505;DHT22;5809;53.262;10.408;2023-04-01T01:18:15;8.70;99.90
11505;DHT22;5809;53.262;10.408;2023-04-01T01:21:06;8.70;99.90
11505;DHT22;5809;53.262;10.408;2023-04-01T01:24:05;8.70;99.90
11505;DHT22;5809;53.262;10.408;2023-04-01T01:26:56;8.60;99.90
11505;DHT22;5809;53.262;10.408;2023-04-01T01:30:11;8.60;99.90
11505;DHT22;5809;53.262;10.408;2023-04-01T01:32:55;8.60;99.90
11505;DHT22;5809;53.262;10.408;2023-04-01T01:35:28;8.60;99.90
11505;DHT22;5809;53.262;10.408;2023-04-01T01:37:59;8.60;99.90
11505;DHT22;5809;53.262;10.408;2023-04-01T01:40:27;8.60;99.90
11505;DHT22;5809;53.262;10.408;2023-04-01T01:42:59;8.60;99.90
11505;DHT22;5809;53.262;10.408;2023-04-01T01:45:27;8.60;99.90
11505;DHT22;5809;53.262;10.408;2023-04-01T01:47:56;8.60;99.90
11505;DHT22;5809;53.262;10.408;2023-04-01T01:50:25;8.60;99.90
11505;DHT22;5809;53.262;10.408;2023-04-01T01:53:01;8.60;99.90
11505;DHT22;5809;53.262;10.408;2023-04-01T01:55:30;8.60;99.90
11505;DHT22;5809;53.262;10.408;2023-04-01T01:58:00;8.60;99.90
11505;DHT22;5809;53.262;10.408;2023-04-01T02:00:29;8.60;99.90
11505;DHT22;5809;53.262;10.408;2023-04-01T02:02:57;8.60;99.90
11505;DHT22;5809;53.262;10.408;2023-04-01T02:05:27;8.60;99.90
11505;DHT22;5809;53.262;10.408;2023-04-01T02:08:00;8.60;99.90
11505;DHT22;5809;53.262;10.408;2023-04-01T02:10:29;8.60;99.90
11505;DHT22;5809;53.262;10.408;2023-04-01T02:13:00;8.60;99.90
11505;DHT22;5809;53.262;10.408;2023-04-01T02:15:31;8.60;99.90
11505;DHT22;5809;53.262;10.408;2023-04-01T02:18:04;8.60;99.90
11505;DHT22;5809;53.262;10.408;2023-04-01T02:20:34;8.60;99.90
11505;DHT22;5809;53.262;10.408;2023-04-01T02:23:03;8.60;99.90
11505;DHT22;5809;53.262;10.408;2023-04-01T02:25:35;8.60;99.90
11505;DHT22;5809;53.262;10.408;2023-04-01T02:28:05;8.60;99.90
11505;DHT22;5809;53.262;10.408;2023-04-01T02:30:35;8.60;99.90
11505;DHT22;5809;53.262;10.408;2023-04-01T02:33:04;8.60;99.90
11505;DHT22;5809;53.262;10.408;2023-04-01T02:35:35;8.60;99.90
11505;DHT22;5809;53.262;10.408;2023-04-01T02:38:03;8.60;99.90
11505;DHT22;5809;53.262;10.408;2023-04-01T02:40:40;8.60;99.90
11505;DHT22;5809;53.262;10.408;2023-04-01T02:43:06;8.60;99.90
11505;DHT22;5809;53.262;10.408;2023-04-01T02:45:33;8.60;99.90
11505;DHT22;5809;53.262;10.408;2023-04-01T02:48:00;8.60;99.90
11505;DHT22;5809;53.262;10.408;2023-04-01T02:50:27;8.60;99.90
11505;DHT22;5809;53.262;10.408;2023-04-01T02:52:55;8.60;99.90
11505;DHT22;5809;53.262;10.408;2023-04-01T02:55:22;8.60;99.90
11505;DHT22;5809;53.262;10.408;2023-04-01T02:57:49;8.60;99.90
11505;DHT22;5809;53.262;10.408;2023-04-01T03:00:17;8.60;99.90
11505;DHT22;5809;53.262;10.408;2023-04-01T03:02:44;8.60;99.90
11505;DHT22;5809;53.262;10.408;2023-04-01T03:05:11;8.60;99.90
11505;DHT22;5809;53.262;10.408;2023-04-01T03:07:38;8.60;99.90
11505;DHT22;5809;53.262;10.408;2023-04-01T03:10:08;8.60;99.90
11505;DHT22;5809;53.262;10.408;2023-04-01T03:12:35;8.60;99.90
11505;DHT22;5809;53.262;10.408;2023-04-01T03:15:02;8.70;99.90
11505;DHT22;5809;53.262;10.408;2023-04-01T03:17:29;8.60;99.90
11505;DHT22;5809;53.262;10.408;2023-04-01T03:19:56;8.60;99.90
11505;DHT22;5809;53.262;10.408;2023-04-01T03:22:23;8.70;99.90
11505;DHT22;5809;53.262;10.408;2023-04-01T03:24:50;8.70;99.90
11505;DHT22;5809;53.262;10.408;2023-04-01T03:27:18;8.60;99.90
11505;DHT22;5809;53.262;10.408;2023-04-01T03:29:45;8.70;99.90
11505;DHT22;5809;53.262;10.408;2023-04-01T03:32:12;8.70;99.90
11505;DHT22;5809;53.262;10.408;2023-04-01T03:34:39;8.70;99.90
11505;DHT22;5809;53.262;10.408;2023-04-01T03:37:06;8.70;99.90
11505;DHT22;5809;53.262;10.408;2023-04-01T03:39:33;8.60;99.90
11505;DHT22;5809;53.262;10.408;2023-04-01T03:42:00;8.60;99.90
11505;DHT22;5809;53.262;10.408;2023-04-01T03:44:31;8.60;99.90
11505;DHT22;5809;53.262;10.408;2023-04-01T03:46:59;8.70;99.90
11505;DHT22;5809;53.262;10.408;2023-04-01T03:49:26;8.70;99.90
11505;DHT22;5809;53.262;10.408;2023-04-01T03:51:53;8.70;99.90
11505;DHT22;5809;53.262;10.408;2023-04-01T03:54:20;8.70;99.90
11505;DHT22;5809;53.262;10.408;2023-04-01T03:56:47;8.70;99.90
11505;DHT22;5809;53.262;10.408;2023-04-01T03:59:14;8.70;99.90
11505;DHT22;5809;53.262;10.408;2023-04-01T04:01:42;8.70;99.90
11505;DHT22;5809;53.262;10.408;2023-04-01T04:04:10;8.70;99.90
11505;DHT22;5809;53.262;10.408;2023-04-01T04:06:38;8.70;99.90
11505;DHT22;5809;53.262;10.408;2023-04-01T04:09:05;8.60;99.90
11505;DHT22;5809;53.262;10.408;2023-04-01T04:11:32;8.60;99.90
11505;DHT22;5809;53.262;10.408;2023-04-01T04:13:59;8.70;99.90
11505;DHT22;5809;53.262;10.408;2023-04-01T04:16:26;8.60;99.90
11505;DHT22;5809;53.262;10.408;2023-04-01T04:18:54;8.70;99.90
11505;DHT22;5809;53.262;10.408;2023-04-01T04:21:21;8.70;99.90
11505;DHT22;5809;53.262;10.408;2023-04-01T04:23:48;8.70;99.90
11505;DHT22;5809;53.262;10.408;2023-04-01T04:26:16;8.60;99.90
11505;DHT22;5809;53.262;10.408;2023-04-01T04:28:43;8.60;99.90
11505;DHT22;5809;53.262;10.408;2023-04-01T04:31:09;8.60;99.90
11505;DHT22;5809;53.262;10.408;2023-04-01T04:33:37;8.60;99.90
11505;DHT22;5809;53.262;10.408;2023-04-01T04:36:06;8.70;99.90
11505;DHT22;5809;53.262;10.408;2023-04-01T04:38:33;8.60;99.90
11505;DHT22;5809;53.262;10.408;2023-04-01T04:40:59;8.70;99.90
11505;DHT22;5809;53.262;10.408;2023-04-01T04:43:26;8.60;99.90
11505;DHT22;5809;53.262;10.408;2023-04-01T04:45:53;8.60;99.90
11505;DHT22;5809;53.262;10.408;2023-04-01T04:48:20;8.70;99.90
11505;DHT22;5809;53.262;10.408;2023-04-01T04:50:48;8.60;99.90
11505;DHT22;5809;53.262;10.408;2023-04-01T04:53:18;8.70;99.90
11505;DHT22;5809;53.262;10.408;2023-04-01T04:55:45;8.60;99.90
11505;DHT22;5809;53.262;10.408;2023-04-01T04:58:12;8.60;99.90
11505;DHT22;5809;53.262;10.408;2023-04-01T05:00:39;8.70;99.90
11505;DHT22;5809;53.262;10.408;2023-04-01T05:03:06;8.60;99.90
11505;DHT22;5809;53.262;10.408;2023-04-01T05:05:34;8.60;99.90
11505;DHT22;5809;53.262;10.408;2023-04-01T05:08:01;8.60;99.90
11505;DHT22;5809;53.262;10.408;2023-04-01T05:10:29;8.60;99.90
11505;DHT22;5809;53.262;10.408;2023-04-01T05:12:57;8.60;99.90
11505;DHT22;5809;53.262;10.408;2023-04-01T05:15:24;8.60;99.90
11505;DHT22;5809;53.262;10.408;2023-04-01T05:17:51;8.60;99.90
11505;DHT22;5809;53.262;10.408;2023-04-01T05:20:18;8.60;99.90
11505;DHT22;5809;53.262;10.408;2023-04-01T05:22:45;8.60;99.90
11505;DHT22;5809;53.262;10.408;2023-04-01T05:25:12;8.60;99.90
11505;DHT22;5809;53.262;10.408;2023-04-01T05:27:40;8.60;99.90
11505;DHT22;5809;53.262;10.408;2023-04-01T05:30:08;8.70;99.90
11505;DHT22;5809;53.262;10.408;2023-04-01T05:32:36;8.70;99.90
11505;DHT22;5809;53.262;10.408;2023-04-01T05:35:03;8.70;99.90
11505;DHT22;5809;53.262;10.408;2023-04-01T05:37:30;8.70;99.90
11505;DHT22;5809;53.262;10.408;2023-04-01T05:39:57;8.70;99.90
11505;DHT22;5809;53.262;10.408;2023-04-01T05:42:25;8.70;99.90
11505;DHT22;5809;53.262;10.408;2023-04-01T05:44:53;8.70;99.90
11505;DHT22;5809;53.262;10.408;2023-04-01T05:47:21;8.70;99.90
11505;DHT22;5809;53.262;10.408;2023-04-01T05:49:48;8.70;99.90
11505;DHT22;5809;53.262;10.408;2023-04-01T05:52:15;8.80;99.90
11505;DHT22;5809;53.262;10.408;2023-04-01T05:54:42;8.80;99.90
11505;DHT22;5809;53.262;10.408;2023-04-01T05:57:09;8.80;99.90
11505;DHT22;5809;53.262;10.408;2023-04-01T05:59:36;8.80;99.90
11505;DHT22;5809;53.262;10.408;2023-04-01T06:02:04;8.80;99.90
11505;DHT22;5809;53.262;10.408;2023-04-01T06:04:37;8.80;99.90
11505;DHT22;5809;53.262;10.408;2023-04-01T06:07:10;8.90;99.90
11505;DHT22;5809;53.262;10.408;2023-04-01T06:09:37;8.90;99.90
11505;DHT22;5809;53.262;10.408;2023-04-01T06:12:19;8.90;99.90
11505;DHT22;5809;53.262;10.408;2023-04-01T06:14:58;8.90;99.90
11505;DHT22;5809;53.262;10.408;2023-04-01T06:17:37;9.00;99.90
11505;DHT22;5809;53.262;10.408;2023-04-01T06:20:14;9.10;99.90
11505;DHT22;5809;53.262;10.408;2023-04-01T06:23:00;9.10;99.90
11505;DHT22;5809;53.262;10.408;2023-04-01T06:25:47;9.10;99.90
11505;DHT22;5809;53.262;10.408;2023-04-01T06:28:40;9.10;99.90
11505;DHT22;5809;53.262;10.408;2023-04-01T06:31:17;9.10;99.90
11505;DHT22;5809;53.262;10.408;2023-04-01T06:34:05;9.10;99.90
11505;DHT22;5809;53.262;10.408;2023-04-01T06:36:59;9.00;99.90
11505;DHT22;5809;53.262;10.408;2023-04-01T06:39:42;9.10;99.90
11505;DHT22;5809;53.262;10.408;2023-04-01T06:42:25;9.00;99.90
11505;DHT22;5809;53.262;10.408;2023-04-01T06:45:07;9.10;99.90
11505;DHT22;5809;53.262;10.408;2023-04-01T06:47:46;9.00;99.90
11505;DHT22;5809;53.262;10.408;2023-04-01T06:50:23;7.90;99.90
11505;DHT22;5809;53.262;10.408;2023-04-01T06:52:58;7.90;99.90
11505;DHT22;5809;53.262;10.408;2023-04-01T06:55:30;7.90;99.90
11505;DHT22;5809;53.262;10.408;2023-04-01T06:58:03;7.80;99.90
11505;DHT22;5809;53.262;10.408;2023-04-01T07:00:36;7.60;99.90
11505;DHT22;5809;53.262;10.408;2023-04-01T07:03:16;7.60;99.90
11505;DHT22;5809;53.262;10.408;2023-04-01T07:05:46;7.40;99.90
11505;DHT22;5809;53.262;10.408;2023-04-01T07:08:16;7.40;99.90
11505;DHT22;5809;53.262;10.408;2023-04-01T07:10:47;7.40;99.90
11505;DHT22;5809;53.262;10.408;2023-04-01T07:13:18;7.40;99.90
11505;DHT22;5809;53.262;10.408;2023-04-01T07:15:55;7.30;99.90
11505;DHT22;5809;53.262;10.408;2023-04-01T07:18:29;7.20;99.90
11505;DHT22;5809;53.262;10.408;2023-04-01T07:20:59;7.10;99.90
11505;DHT22;5809;53.262;10.408;2023-04-01T07:23:29;7.10;99.90
11505;DHT22;5809;53.262;10.408;2023-04-01T07:26:00;7.00;99.90
11505;DHT22;5809;53.262;10.408;2023-04-01T07:28:31;7.00;99.90
11505;DHT22;5809;53.262;10.408;2023-04-01T07:31:07;7.00;99.90
11505;DHT22;5809;53.262;10.408;2023-04-01T07:33:41;6.90;99.90
11505;DHT22;5809;53.262;10.408;2023-04-01T07:36:14;6.90;99.90
11505;DHT22;5809;53.262;10.408;2023-04-01T07:38:52;6.90;99.90
11505;DHT22;5809;53.262;10.408;2023-04-01T07:41:30;6.80;99.90
11505;DHT22;5809;53.262;10.408;2023-04-01T07:44:07;6.70;99.90
11505;DHT22;5809;53.262;10.408;2023-04-01T07:46:50;6.70;99.90
11505;DHT22;5809;53.262;10.408;2023-04-01T07:49:25;6.70;99.90
11505;DHT22;5809;53.262;10.408;2023-04-01T07:52:01;6.70;99.90
11505;DHT22;5809;53.262;10.408;2023-04-01T07:54:38;6.60;99.90
11505;DHT22;5809;53.262;10.408;2023-04-01T07:57:12;6.70;99.90
11505;DHT22;5809;53.262;10.408;2023-04-01T07:59:48;6.70;99.90
11505;DHT22;5809;53.262;10.408;2023-04-01T08:02:28;6.70;99.90
11505;DHT22;5809;53.262;10.408;2023-04-01T08:05:04;6.60;99.90
11505;DHT22;5809;53.262;10.408;2023-04-01T08:07:43;6.60;99.90
11505;DHT22;5809;53.262;10.408;2023-04-01T08:10:17;6.70;99.90
11505;DHT22;5809;53.262;10.408;2023-04-01T08:12:55;6.50;99.90
11505;DHT22;5809;53.262;10.408;2023-04-01T08:15:27;6.60;99.90
11505;DHT22;5809;53.262;10.408;2023-04-01T08:18:06;6.70;99.90
11505;DHT22;5809;53.262;10.408;2023-04-01T08:20:37;6.60;99.90
11505;DHT22;5809;53.262;10.408;2023-04-01T08:23:12;6.50;99.90
11505;DHT22;5809;53.262;10.408;2023-04-01T08:25:46;6.50;99.90
11505;DHT22;5809;53.262;10.408;2023-04-01T08:28:19;6.60;99.90
11505;DHT22;5809;53.262;10.408;2023-04-01T08:30:49;6.50;99.90
11505;DHT22;5809;53.262;10.408;2023-04-01T08:33:19;6.50;99.90
11505;DHT22;5809;53.262;10.408;2023-04-01T08:35:51;6.50;99.90
11505;DHT22;5809;53.262;10.408;2023-04-01T08:38:26;6.40;99.90
11505;DHT22;5809;53.262;10.408;2023-04-01T08:41:12;6.40;99.90
11505;DHT22;5809;53.262;10.408;2023-04-01T08:47:01;6.50;99.90
11505;DHT22;5809;53.262;10.408;2023-04-01T08:52:35;6.40;99.90
11505;DHT22;5809;53.262;10.408;2023-04-01T08:55:34;6.40;99.90
11505;DHT22;5809;53.262;10.408;2023-04-01T08:58:22;6.40;99.90
11505;DHT22;5809;53.262;10.408;2023-04-01T09:00:54;6.40;99.90
11505;DHT22;5809;53.262;10.408;2023-04-01T09:03:41;6.40;99.90
11505;DHT22;5809;53.262;10.408;2023-04-01T09:06:39;6.60;99.90
11505;DHT22;5809;53.262;10.408;2023-04-01T09:12:31;6.60;99.90
11505;DHT22;5809;53.262;10.408;2023-04-01T09:15:33;6.70;99.90
11505;DHT22;5809;53.262;10.408;2023-04-01T09:18:20;6.60;99.90
11505;DHT22;5809;53.262;10.408;2023-04-01T09:27:05;6.50;99.90
11505;DHT22;5809;53.262;10.408;2023-04-01T09:36:03;6.80;99.90
11505;DHT22;5809;53.262;10.408;2023-04-01T09:38:42;6.60;99.90
11505;DHT22;5809;53.262;10.408;2023-04-01T09:41:23;6.70;99.90
11505;DHT22;5809;53.262;10.408;2023-04-01T09:44:05;6.60;99.90
11505;DHT22;5809;53.262;10.408;2023-04-01T09:46:49;6.70;99.90
11505;DHT22;5809;53.262;10.408;2023-04-01T09:49:37;6.60;99.90
11505;DHT22;5809;53.262;10.408;2023-04-01T09:52:20;6.60;99.90
11505;DHT22;5809;53.262;10.408;2023-04-01T09:55:14;6.40;99.90
11505;DHT22;5809;53.262;10.408;2023-04-01T10:04:44;6.50;99.90
11505;DHT22;5809;53.262;10.408;2023-04-01T10:07:43;6.60;99.90
11505;DHT22;5809;53.262;10.408;2023-04-01T10:13:32;6.60;99.90
11505;DHT22;5809;53.262;10.408;2023-04-01T10:16:22;6.40;99.90
11505;DHT22;5809;53.262;10.408;2023-04-01T10:19:29;6.40;99.90
11505;DHT22;5809;53.262;10.408;2023-04-01T10:25:29;6.50;99.90
11505;DHT22;5809;53.262;10.408;2023-04-01T10:31:34;6.50;99.90
11505;DHT22;5809;53.262;10.408;2023-04-01T10:34:18;6.30;99.90
11505;DHT22;5809;53.262;10.408;2023-04-01T10:36:54;6.20;99.90
11505;DHT22;5809;53.262;10.408;2023-04-01T10:39:43;6.30;99.90
11505;DHT22;5809;53.262;10.408;2023-04-01T10:48:19;6.40;99.90
11505;DHT22;5809;53.262;10.408;2023-04-01T10:51:11;6.50;99.90
11505;DHT22;5809;53.262;10.408;2023-04-01T10:53:49;6.70;99.90
11505;DHT22;5809;53.262;10.408;2023-04-01T10:56:39;6.60;99.90
11505;DHT22;5809;53.262;10.408;2023-04-01T11:02:52;6.50;99.90
11505;DHT22;5809;53.262;10.408;2023-04-01T11:24:21;6.50;99.90
11505;DHT22;5809;53.262;10.408;2023-04-01T11:27:05;6.50;99.90
11505;DHT22;5809;53.262;10.408;2023-04-01T11:30:10;6.50;99.90
11505;DHT22;5809;53.262;10.408;2023-04-01T11:32:46;6.50;99.90
11505;DHT22;5809;53.262;10.408;2023-04-01T11:38:42;6.40;99.90
11505;DHT22;5809;53.262;10.408;2023-04-01T11:41:22;6.50;99.90
11505;DHT22;5809;53.262;10.408;2023-04-01T11:44:04;6.60;99.90
11505;DHT22;5809;53.262;10.408;2023-04-01T11:46:43;6.60;99.90
11505;DHT22;5809;53.262;10.408;2023-04-01T11:52:16;6.80;99.90
11505;DHT22;5809;53.262;10.408;2023-04-01T11:55:02;6.60;99.90
11505;DHT22;5809;53.262;10.408;2023-04-01T11:57:57;6.60;99.90
11505;DHT22;5809;53.262;10.408;2023-04-01T12:00:42;6.20;99.90
11505;DHT22;5809;53.262;10.408;2023-04-01T12:06:20;6.40;99.90
11505;DHT22;5809;53.262;10.408;2023-04-01T12:08:55;6.60;99.90
11505;DHT22;5809;53.262;10.408;2023-04-01T12:11:32;6.50;99.90
11505;DHT22;5809;53.262;10.408;2023-04-01T12:14:08;6.40;99.90
11505;DHT22;5809;53.262;10.408;2023-04-01T12:16:51;6.30;99.90
11505;DHT22;5809;53.262;10.408;2023-04-01T12:19:26;6.50;99.90
11505;DHT22;5809;53.262;10.408;2023-04-01T12:22:13;6.50;99.90
11505;DHT22;5809;53.262;10.408;2023-04-01T12:24:49;6.40;99.90
11505;DHT22;5809;53.262;10.408;2023-04-01T12:33:28;6.50;99.90
11505;DHT22;5809;53.262;10.408;2023-04-01T12:36:08;6.50;99.90
11505;DHT22;5809;53.262;10.408;2023-04-01T12:38:46;6.60;99.90
11505;DHT22;5809;53.262;10.408;2023-04-01T12:41:24;6.60;99.90
11505;DHT22;5809;53.262;10.408;2023-04-01T12:44:23;6.30;99.90
11505;DHT22;5809;53.262;10.408;2023-04-01T12:49:56;6.40;99.90
11505;DHT22;5809;53.262;10.408;2023-04-01T12:52:39;6.50;99.90
11505;DHT22;5809;53.262;10.408;2023-04-01T12:55:34;6.60;99.90
11505;DHT22;5809;53.262;10.408;2023-04-01T13:06:44;6.50;99.90
11505;DHT22;5809;53.262;10.408;2023-04-01T13:12:00;6.70;99.90
11505;DHT22;5809;53.262;10.408;2023-04-01T13:25:06;6.40;99.90
11505;DHT22;5809;53.262;10.408;2023-04-01T13:27:40;6.30;99.90
11505;DHT22;5809;53.262;10.408;2023-04-01T13:30:23;6.30;99.90
11505;DHT22;5809;53.262;10.408;2023-04-01T13:35:30;6.20;99.90
11505;DHT22;5809;53.262;10.408;2023-04-01T13:43:19;6.30;99.90
11505;DHT22;5809;53.262;10.408;2023-04-01T13:48:59;6.20;99.90
11505;DHT22;5809;53.262;10.408;2023-04-01T13:54:46;6.10;99.90
11505;DHT22;5809;53.262;10.408;2023-04-01T13:57:33;6.10;99.90
11505;DHT22;5809;53.262;10.408;2023-04-01T14:08:01;5.90;99.90
11505;DHT22;5809;53.262;10.408;2023-04-01T14:10:36;5.90;99.90
11505;DHT22;5809;53.262;10.408;2023-04-01T14:13:12;6.00;99.90
11505;DHT22;5809;53.262;10.408;2023-04-01T14:16:04;5.90;99.90
11505;DHT22;5809;53.262;10.408;2023-04-01T14:18:45;5.80;99.90
11505;DHT22;5809;53.262;10.408;2023-04-01T14:24:06;5.70;99.90
11505;DHT22;5809;53.262;10.408;2023-04-01T14:27:08;5.80;99.90
11505;DHT22;5809;53.262;10.408;2023-04-01T14:29:40;5.70;99.90
11505;DHT22;5809;53.262;10.408;2023-04-01T14:34:53;5.70;99.90
11505;DHT22;5809;53.262;10.408;2023-04-01T14:37:44;5.60;99.90
11505;DHT22;5809;53.262;10.408;2023-04-01T14:43:14;5.70;99.90
11505;DHT22;5809;53.262;10.408;2023-04-01T14:46:00;5.80;99.90
11505;DHT22;5809;53.262;10.408;2023-04-01T14:48:33;5.30;99.90
11505;DHT22;5809;53.262;10.408;2023-04-01T14:51:10;5.90;99.90
11505;DHT22;5809;53.262;10.408;2023-04-01T14:56:11;5.70;99.90
11505;DHT22;5809;53.262;10.408;2023-04-01T14:58:45;5.60;99.90
11505;DHT22;5809;53.262;10.408;2023-04-01T15:14:21;5.70;99.90
11505;DHT22;5809;53.262;10.408;2023-04-01T15:16:59;5.60;99.90
11505;DHT22;5809;53.262;10.408;2023-04-01T15:30:24;5.70;99.90
11505;DHT22;5809;53.262;10.408;2023-04-01T15:33:03;5.70;99.90
11505;DHT22;5809;53.262;10.408;2023-04-01T15:35:39;5.70;99.90
11505;DHT22;5809;53.262;10.408;2023-04-01T15:38:21;5.60;99.90
11505;DHT22;5809;53.262;10.408;2023-04-01T15:51:17;5.60;99.90
11505;DHT22;5809;53.262;10.408;2023-04-01T15:59:41;5.50;99.90
11505;DHT22;5809;53.262;10.408;2023-04-01T16:02:15;5.50;99.90
11505;DHT22;5809;53.262;10.408;2023-04-01T16:12:41;5.30;99.90
11505;DHT22;5809;53.262;10.408;2023-04-01T16:15:21;5.30;99.90
11505;DHT22;5809;53.262;10.408;2023-04-01T16:20:42;5.40;99.90
11505;DHT22;5809;53.262;10.408;2023-04-01T16:33:23;5.10;99.90
11505;DHT22;5809;53.262;10.408;2023-04-01T16:35:55;5.10;99.90
11505;DHT22;5809;53.262;10.408;2023-04-01T16:38:30;5.10;99.90
11505;DHT22;5809;53.262;10.408;2023-04-01T16:43:40;5.00;99.90
11505;DHT22;5809;53.262;10.408;2023-04-01T16:46:31;5.00;99.90
11505;DHT22;5809;53.262;10.408;2023-04-01T16:51:34;5.00;99.90
11505;DHT22;5809;53.262;10.408;2023-04-01T16:54:05;4.90;99.90
11505;DHT22;5809;53.262;10.408;2023-04-01T17:01:44;4.90;99.90
11505;DHT22;5809;53.262;10.408;2023-04-01T17:06:49;4.80;99.90
11505;DHT22;5809;53.262;10.408;2023-04-01T17:12:05;4.70;99.90
11505;DHT22;5809;53.262;10.408;2023-04-01T17:14:42;4.60;99.90
11505;DHT22;5809;53.262;10.408;2023-04-01T17:27:27;4.30;99.90
11505;DHT22;5809;53.262;10.408;2023-04-01T17:35:10;4.20;99.90
11505;DHT22;5809;53.262;10.408;2023-04-01T17:37:45;4.20;99.90
11505;DHT22;5809;53.262;10.408;2023-04-01T17:48:15;4.20;99.90
11505;DHT22;5809;53.262;10.408;2023-04-01T17:50:57;4.20;99.90
11505;DHT22;5809;53.262;10.408;2023-04-01T17:56:04;4.10;99.90
11505;DHT22;5809;53.262;10.408;2023-04-01T18:03:55;4.00;99.90
11505;DHT22;5809;53.262;10.408;2023-04-01T18:06:33;4.00;99.90
11505;DHT22;5809;53.262;10.408;2023-04-01T18:17:02;3.80;99.90
11505;DHT22;5809;53.262;10.408;2023-04-01T18:19:39;4.00;99.90
11505;DHT22;5809;53.262;10.408;2023-04-01T18:27:16;4.10;99.90
11505;DHT22;5809;53.262;10.408;2023-04-01T18:32:28;4.00;99.90
11505;DHT22;5809;53.262;10.408;2023-04-01T18:42:33;3.90;99.90
11505;DHT22;5809;53.262;10.408;2023-04-01T18:50:18;3.90;99.90
11505;DHT22;5809;53.262;10.408;2023-04-01T18:52:50;3.80;99.90
11505;DHT22;5809;53.262;10.408;2023-04-01T18:55:30;3.80;99.90
11505;DHT22;5809;53.262;10.408;2023-04-01T19:00:52;3.70;99.90
11505;DHT22;5809;53.262;10.408;2023-04-01T19:03:25;3.60;99.90
11505;DHT22;5809;53.262;10.408;2023-04-01T19:05:56;3.70;99.90
11505;DHT22;5809;53.262;10.408;2023-04-01T19:08:28;3.80;99.90
11505;DHT22;5809;53.262;10.408;2023-04-01T19:11:06;3.80;99.90
11505;DHT22;5809;53.262;10.408;2023-04-01T19:13:42;3.80;99.90
11505;DHT22;5809;53.262;10.408;2023-04-01T19:16:21;3.80;99.90
11505;DHT22;5809;53.262;10.408;2023-04-01T19:19:01;3.80;99.90
11505;DHT22;5809;53.262;10.408;2023-04-01T19:21:33;3.70;99.90
11505;DHT22;5809;53.262;10.408;2023-04-01T19:24:35;3.80;99.90
11505;DHT22;5809;53.262;10.408;2023-04-01T19:27:12;3.70;99.90
11505;DHT22;5809;53.262;10.408;2023-04-01T19:29:50;3.70;99.90
11505;DHT22;5809;53.262;10.408;2023-04-01T19:32:30;3.70;99.90
11505;DHT22;5809;53.262;10.408;2023-04-01T19:35:13;3.60;99.90
11505;DHT22;5809;53.262;10.408;2023-04-01T19:37:51;3.60;99.90
11505;DHT22;5809;53.262;10.408;2023-04-01T19:40:37;3.60;99.90
11505;DHT22;5809;53.262;10.408;2023-04-01T19:43:15;2.50;99.90
11505;DHT22;5809;53.262;10.408;2023-04-01T19:45:47;3.60;99.90
11505;DHT22;5809;53.262;10.408;2023-04-01T19:48:31;3.60;99.90
11505;DHT22;5809;53.262;10.408;2023-04-01T19:51:09;3.50;99.90
11505;DHT22;5809;53.262;10.408;2023-04-01T19:53:41;3.50;99.90
11505;DHT22;5809;53.262;10.408;2023-04-01T19:56:15;3.50;99.90
11505;DHT22;5809;53.262;10.408;2023-04-01T19:58:47;3.50;99.90
11505;DHT22;5809;53.262;10.408;2023-04-01T20:01:19;3.50;99.90
11505;DHT22;5809;53.262;10.408;2023-04-01T20:03:52;3.50;99.90
11505;DHT22;5809;53.262;10.408;2023-04-01T20:06:28;3.50;99.90
11505;DHT22;5809;53.262;10.408;2023-04-01T20:09:13;3.40;99.90
11505;DHT22;5809;53.262;10.408;2023-04-01T20:11:50;3.40;99.90
11505;DHT22;5809;53.262;10.408;2023-04-01T20:14:24;3.40;99.90
11505;DHT22;5809;53.262;10.408;2023-04-01T20:17:01;3.40;99.90
11505;DHT22;5809;53.262;10.408;2023-04-01T20:19:33;3.50;99.90
11505;DHT22;5809;53.262;10.408;2023-04-01T20:22:05;3.40;99.90
11505;DHT22;5809;53.262;10.408;2023-04-01T20:24:41;3.50;99.90
11505;DHT22;5809;53.262;10.408;2023-04-01T20:27:14;3.40;99.90
11505;DHT22;5809;53.262;10.408;2023-04-01T20:29:55;3.40;99.90
11505;DHT22;5809;53.262;10.408;2023-04-01T20:32:35;3.40;99.90
11505;DHT22;5809;53.262;10.408;2023-04-01T20:35:19;3.30;99.90
11505;DHT22;5809;53.262;10.408;2023-04-01T20:37:54;3.30;99.90
11505;DHT22;5809;53.262;10.408;2023-04-01T20:40:29;3.10;99.90
11505;DHT22;5809;53.262;10.408;2023-04-01T20:45:56;2.90;99.90
11505;DHT22;5809;53.262;10.408;2023-04-01T20:48:52;2.80;99.90
11505;DHT22;5809;53.262;10.408;2023-04-01T20:51:26;2.80;99.90
11505;DHT22;5809;53.262;10.408;2023-04-01T20:54:09;2.70;99.90
11505;DHT22;5809;53.262;10.408;2023-04-01T20:56:51;2.60;99.90
11505;DHT22;5809;53.262;10.408;2023-04-01T20:59:49;2.50;99.90
11505;DHT22;5809;53.262;10.408;2023-04-01T21:02:39;2.40;99.90
11505;DHT22;5809;53.262;10.408;2023-04-01T21:05:35;2.40;99.90
11505;DHT22;5809;53.262;10.408;2023-04-01T21:08:16;2.30;99.90
11505;DHT22;5809;53.262;10.408;2023-04-01T21:10:57;2.30;99.90
11505;DHT22;5809;53.262;10.408;2023-04-01T21:13:37;2.20;99.90
11505;DHT22;5809;53.262;10.408;2023-04-01T21:16:26;2.20;99.90